sensor_id;sensor_type;location;lat;lon;timestamp;P1;durP1;ratioP1;P2;durP2;ratioP2
38379;SDS011;38377;47.418;18.882;2022-09-09T00:07:03;3.05;;;2.72;;
38379;SDS011;38377;47.418;18.882;2022-09-09T00:15:05;2.47;;;2.28;;
38379;SDS011;38377;47.418;18.882;2022-09-09T00:28:23;3.72;;;2.67;;
38379;SDS011;38377;47.418;18.882;2022-09-09T00:30:51;2.55;;;2.20;;
38379;SDS011;38377;47.418;18.882;2022-09-09T00:33:19;2.88;;;2.67;;
38379;SDS011;38377;47.418;18.882;2022-09-09T00:35:51;4.00;;;3.17;;
38379;SDS011;38377;47.418;18.882;2022-09-09T00:38:32;3.35;;;2.85;;
38379;SDS011;38377;47.418;18.882;2022-09-09T00:43:51;3.65;;;3.25;;
38379;SDS011;38377;47.418;18.882;2022-09-09T00:57:51;3.95;;;3.30;;
38379;SDS011;38377;47.418;18.882;2022-09-09T01:11:33;4.85;;;3.97;;
38379;SDS011;38377;47.418;18.882;2022-09-09T01:16:50;3.83;;;3.42;;
38379;SDS011;38377;47.418;18.882;2022-09-09T01:19:27;4.15;;;3.75;;
38379;SDS011;38377;47.418;18.882;2022-09-09T01:28:04;4.43;;;3.35;;
38379;SDS011;38377;47.418;18.882;2022-09-09T01:30:35;5.60;;;3.75;;
38379;SDS011;38377;47.418;18.882;2022-09-09T01:33:03;6.43;;;3.70;;
38379;SDS011;38377;47.418;18.882;2022-09-09T01:38:15;3.78;;;3.35;;
38379;SDS011;38377;47.418;18.882;2022-09-09T01:40:42;4.10;;;3.70;;
38379;SDS011;38377;47.418;18.882;2022-09-09T01:43:08;4.32;;;3.58;;
38379;SDS011;38377;47.418;18.882;2022-09-09T01:45:35;3.83;;;3.42;;
38379;SDS011;38377;47.418;18.882;2022-09-09T01:48:02;4.55;;;3.72;;
38379;SDS011;38377;47.418;18.882;2022-09-09T01:50:28;3.72;;;3.33;;
38379;SDS011;38377;47.418;18.882;2022-09-09T01:52:54;5.90;;;3.85;;
38379;SDS011;38377;47.418;18.882;2022-09-09T01:55:28;4.38;;;3.22;;
38379;SDS011;38377;47.418;18.882;2022-09-09T02:01:06;3.67;;;3.37;;
38379;SDS011;38377;47.418;18.882;2022-09-09T02:03:52;5.38;;;3.63;;
38379;SDS011;38377;47.418;18.882;2022-09-09T02:06:37;5.13;;;3.78;;
38379;SDS011;38377;47.418;18.882;2022-09-09T02:09:05;4.47;;;3.88;;
38379;SDS011;38377;47.418;18.882;2022-09-09T02:11:35;4.40;;;4.00;;
38379;SDS011;38377;47.418;18.882;2022-09-09T02:14:46;4.53;;;4.13;;
38379;SDS011;38377;47.418;18.882;2022-09-09T02:17:03;4.55;;;3.92;;
38379;SDS011;38377;47.418;18.882;2022-09-09T02:19:48;5.88;;;4.15;;
38379;SDS011;38377;47.418;18.882;2022-09-09T02:22:19;4.20;;;3.80;;
38379;SDS011;38377;47.418;18.882;2022-09-09T02:24:48;4.60;;;4.20;;
38379;SDS011;38377;47.418;18.882;2022-09-09T02:27:17;4.60;;;3.78;;
38379;SDS011;38377;47.418;18.882;2022-09-09T02:29:45;7.50;;;4.43;;
38379;SDS011;38377;47.418;18.882;2022-09-09T02:32:13;4.60;;;4.10;;
38379;SDS011;38377;47.418;18.882;2022-09-09T02:34:46;4.50;;;4.10;;
38379;SDS011;38377;47.418;18.882;2022-09-09T02:37:37;7.00;;;4.28;;
38379;SDS011;38377;47.418;18.882;2022-09-09T02:40:05;4.68;;;4.28;;
38379;SDS011;38377;47.418;18.882;2022-09-09T02:42:38;7.07;;;4.38;;
38379;SDS011;38377;47.418;18.882;2022-09-09T02:45:12;4.95;;;4.35;;
38379;SDS011;38377;47.418;18.882;2022-09-09T02:50:54;6.95;;;4.50;;
38379;SDS011;38377;47.418;18.882;2022-09-09T02:56:14;4.50;;;4.10;;
38379;SDS011;38377;47.418;18.882;2022-09-09T02:58:43;5.20;;;4.28;;
38379;SDS011;38377;47.418;18.882;2022-09-09T03:01:09;5.20;;;4.63;;
38379;SDS011;38377;47.418;18.882;2022-09-09T03:03:35;4.00;;;3.67;;
38379;SDS011;38377;47.418;18.882;2022-09-09T03:06:01;6.47;;;3.90;;
38379;SDS011;38377;47.418;18.882;2022-09-09T03:08:26;4.68;;;3.90;;
38379;SDS011;38377;47.418;18.882;2022-09-09T03:10:54;4.40;;;4.00;;
38379;SDS011;38377;47.418;18.882;2022-09-09T03:13:20;4.13;;;3.72;;
38379;SDS011;38377;47.418;18.882;2022-09-09T03:15:45;4.80;;;4.30;;
38379;SDS011;38377;47.418;18.882;2022-09-09T03:18:13;4.72;;;4.32;;
38379;SDS011;38377;47.418;18.882;2022-09-09T03:20:39;5.57;;;4.07;;
38379;SDS011;38377;47.418;18.882;2022-09-09T03:23:07;4.47;;;4.07;;
38379;SDS011;38377;47.418;18.882;2022-09-09T03:25:33;7.13;;;4.50;;
38379;SDS011;38377;47.418;18.882;2022-09-09T03:27:59;5.13;;;4.38;;
38379;SDS011;38377;47.418;18.882;2022-09-09T03:30:26;4.25;;;3.80;;
38379;SDS011;38377;47.418;18.882;2022-09-09T03:32:52;5.18;;;4.68;;
38379;SDS011;38377;47.418;18.882;2022-09-09T03:35:20;4.72;;;4.28;;
38379;SDS011;38377;47.418;18.882;2022-09-09T03:37:46;5.00;;;4.50;;
38379;SDS011;38377;47.418;18.882;2022-09-09T03:40:12;4.38;;;3.97;;
38379;SDS011;38377;47.418;18.882;2022-09-09T03:42:38;4.80;;;4.30;;
38379;SDS011;38377;47.418;18.882;2022-09-09T03:45:05;4.55;;;4.15;;
38379;SDS011;38377;47.418;18.882;2022-09-09T03:47:34;6.57;;;4.50;;
38379;SDS011;38377;47.418;18.882;2022-09-09T03:49:59;6.15;;;4.80;;
38379;SDS011;38377;47.418;18.882;2022-09-09T03:52:25;5.20;;;4.70;;
38379;SDS011;38377;47.418;18.882;2022-09-09T03:54:52;6.95;;;4.95;;
38379;SDS011;38377;47.418;18.882;2022-09-09T03:57:18;4.80;;;4.28;;
38379;SDS011;38377;47.418;18.882;2022-09-09T03:59:45;6.00;;;5.40;;
38379;SDS011;38377;47.418;18.882;2022-09-09T04:02:10;5.88;;;4.75;;
38379;SDS011;38377;47.418;18.882;2022-09-09T04:04:36;5.97;;;5.03;;
38379;SDS011;38377;47.418;18.882;2022-09-09T04:07:02;5.03;;;4.13;;
38379;SDS011;38377;47.418;18.882;2022-09-09T04:09:27;4.40;;;4.00;;
38379;SDS011;38377;47.418;18.882;2022-09-09T04:11:53;5.85;;;4.63;;
38379;SDS011;38377;47.418;18.882;2022-09-09T04:14:20;4.70;;;4.07;;
38379;SDS011;38377;47.418;18.882;2022-09-09T04:16:46;4.88;;;4.18;;
38379;SDS011;38377;47.418;18.882;2022-09-09T04:19:12;4.90;;;3.95;;
38379;SDS011;38377;47.418;18.882;2022-09-09T04:21:39;4.45;;;4.05;;
38379;SDS011;38377;47.418;18.882;2022-09-09T04:24:06;4.68;;;4.28;;
38379;SDS011;38377;47.418;18.882;2022-09-09T04:26:32;4.97;;;3.72;;
38379;SDS011;38377;47.418;18.882;2022-09-09T04:28:58;4.97;;;4.03;;
38379;SDS011;38377;47.418;18.882;2022-09-09T04:31:24;4.43;;;3.72;;
38379;SDS011;38377;47.418;18.882;2022-09-09T04:33:50;5.15;;;4.75;;
38379;SDS011;38377;47.418;18.882;2022-09-09T04:36:17;4.97;;;4.47;;
38379;SDS011;38377;47.418;18.882;2022-09-09T04:38:44;5.75;;;4.57;;
38379;SDS011;38377;47.418;18.882;2022-09-09T04:41:10;4.70;;;4.30;;
38379;SDS011;38377;47.418;18.882;2022-09-09T04:43:37;6.00;;;5.40;;
38379;SDS011;38377;47.418;18.882;2022-09-09T04:46:03;5.50;;;4.90;;
38379;SDS011;38377;47.418;18.882;2022-09-09T04:48:29;5.45;;;4.93;;
38379;SDS011;38377;47.418;18.882;2022-09-09T04:51:04;5.97;;;5.30;;
38379;SDS011;38377;47.418;18.882;2022-09-09T04:53:30;5.28;;;4.72;;
38379;SDS011;38377;47.418;18.882;2022-09-09T04:56:03;4.70;;;4.30;;
38379;SDS011;38377;47.418;18.882;2022-09-09T04:58:30;5.55;;;5.05;;
38379;SDS011;38377;47.418;18.882;2022-09-09T05:01:30;4.65;;;4.25;;
38379;SDS011;38377;47.418;18.882;2022-09-09T05:03:49;4.55;;;4.15;;
38379;SDS011;38377;47.418;18.882;2022-09-09T05:06:17;4.95;;;4.50;;
38379;SDS011;38377;47.418;18.882;2022-09-09T05:08:44;5.05;;;4.55;;
38379;SDS011;38377;47.418;18.882;2022-09-09T05:11:29;5.07;;;4.57;;
38379;SDS011;38377;47.418;18.882;2022-09-09T05:13:57;5.60;;;4.93;;
38379;SDS011;38377;47.418;18.882;2022-09-09T05:16:23;5.95;;;5.13;;
38379;SDS011;38377;47.418;18.882;2022-09-09T05:18:48;5.25;;;4.75;;
38379;SDS011;38377;47.418;18.882;2022-09-09T05:21:16;6.60;;;5.93;;
38379;SDS011;38377;47.418;18.882;2022-09-09T05:23:44;5.93;;;5.40;;
38379;SDS011;38377;47.418;18.882;2022-09-09T05:26:15;8.77;;;5.93;;
38379;SDS011;38377;47.418;18.882;2022-09-09T05:28:42;6.80;;;5.93;;
38379;SDS011;38377;47.418;18.882;2022-09-09T05:31:09;6.25;;;5.65;;
38379;SDS011;38377;47.418;18.882;2022-09-09T05:33:37;5.75;;;5.15;;
38379;SDS011;38377;47.418;18.882;2022-09-09T05:36:09;6.57;;;5.90;;
38379;SDS011;38377;47.418;18.882;2022-09-09T05:38:38;5.97;;;5.38;;
38379;SDS011;38377;47.418;18.882;2022-09-09T05:41:05;6.43;;;5.82;;
38379;SDS011;38377;47.418;18.882;2022-09-09T05:43:32;6.40;;;5.80;;
38379;SDS011;38377;47.418;18.882;2022-09-09T05:46:10;6.18;;;5.55;;
38379;SDS011;38377;47.418;18.882;2022-09-09T05:48:44;7.05;;;6.35;;
38379;SDS011;38377;47.418;18.882;2022-09-09T05:51:16;6.85;;;6.15;;
38379;SDS011;38377;47.418;18.882;2022-09-09T05:53:46;7.35;;;6.20;;
38379;SDS011;38377;47.418;18.882;2022-09-09T05:56:19;11.02;;;6.57;;
38379;SDS011;38377;47.418;18.882;2022-09-09T05:58:48;7.65;;;6.93;;
38379;SDS011;38377;47.418;18.882;2022-09-09T06:01:15;8.60;;;6.53;;
38379;SDS011;38377;47.418;18.882;2022-09-09T06:03:43;7.72;;;6.97;;
38379;SDS011;38377;47.418;18.882;2022-09-09T06:06:11;6.97;;;6.28;;
38379;SDS011;38377;47.418;18.882;2022-09-09T06:08:42;9.82;;;6.93;;
38379;SDS011;38377;47.418;18.882;2022-09-09T06:13:37;8.32;;;6.50;;
38379;SDS011;38377;47.418;18.882;2022-09-09T06:16:05;8.82;;;6.38;;
38379;SDS011;38377;47.418;18.882;2022-09-09T06:18:33;5.70;;;5.20;;
38379;SDS011;38377;47.418;18.882;2022-09-09T06:20:59;6.13;;;5.53;;
38379;SDS011;38377;47.418;18.882;2022-09-09T06:23:27;6.10;;;5.50;;
38379;SDS011;38377;47.418;18.882;2022-09-09T06:26:06;5.68;;;5.07;;
38379;SDS011;38377;47.418;18.882;2022-09-09T06:28:34;4.60;;;4.20;;
38379;SDS011;38377;47.418;18.882;2022-09-09T06:31:01;4.70;;;4.30;;
38379;SDS011;38377;47.418;18.882;2022-09-09T06:33:33;4.05;;;3.75;;
38379;SDS011;38377;47.418;18.882;2022-09-09T06:36:00;3.92;;;3.45;;
38379;SDS011;38377;47.418;18.882;2022-09-09T06:38:27;3.88;;;3.58;;
38379;SDS011;38377;47.418;18.882;2022-09-09T06:40:56;3.13;;;2.80;;
38379;SDS011;38377;47.418;18.882;2022-09-09T06:43:23;3.10;;;2.80;;
38379;SDS011;38377;47.418;18.882;2022-09-09T06:46:08;2.83;;;2.60;;
38379;SDS011;38377;47.418;18.882;2022-09-09T06:48:36;3.92;;;3.30;;
38379;SDS011;38377;47.418;18.882;2022-09-09T06:51:04;3.42;;;2.83;;
38379;SDS011;38377;47.418;18.882;2022-09-09T06:53:30;4.85;;;3.45;;
38379;SDS011;38377;47.418;18.882;2022-09-09T06:55:59;3.00;;;2.75;;
38379;SDS011;38377;47.418;18.882;2022-09-09T06:58:42;2.90;;;2.70;;
38379;SDS011;38377;47.418;18.882;2022-09-09T07:01:15;4.00;;;3.03;;
38379;SDS011;38377;47.418;18.882;2022-09-09T07:03:42;3.70;;;3.17;;
38379;SDS011;38377;47.418;18.882;2022-09-09T07:06:14;4.13;;;3.60;;
38379;SDS011;38377;47.418;18.882;2022-09-09T07:08:44;4.38;;;3.30;;
38379;SDS011;38377;47.418;18.882;2022-09-09T07:11:17;3.47;;;3.13;;
38379;SDS011;38377;47.418;18.882;2022-09-09T07:13:44;4.38;;;3.67;;
38379;SDS011;38377;47.418;18.882;2022-09-09T07:16:11;3.20;;;2.90;;
38379;SDS011;38377;47.418;18.882;2022-09-09T07:18:39;3.45;;;2.92;;
38379;SDS011;38377;47.418;18.882;2022-09-09T07:21:05;8.63;;;2.95;;
38379;SDS011;38377;47.418;18.882;2022-09-09T07:23:31;3.30;;;3.00;;
38379;SDS011;38377;47.418;18.882;2022-09-09T07:25:58;3.03;;;2.72;;
38379;SDS011;38377;47.418;18.882;2022-09-09T07:28:24;2.10;;;1.95;;
38379;SDS011;38377;47.418;18.882;2022-09-09T07:30:59;2.45;;;2.13;;
38379;SDS011;38377;47.418;18.882;2022-09-09T07:33:29;4.00;;;2.42;;
38379;SDS011;38377;47.418;18.882;2022-09-09T07:36:57;2.97;;;1.95;;
38379;SDS011;38377;47.418;18.882;2022-09-09T07:38:58;1.73;;;1.60;;
38379;SDS011;38377;47.418;18.882;2022-09-09T07:41:39;3.03;;;1.70;;
38379;SDS011;38377;47.418;18.882;2022-09-09T07:44:10;2.90;;;2.00;;
38379;SDS011;38377;47.418;18.882;2022-09-09T07:46:41;2.72;;;1.92;;
38379;SDS011;38377;47.418;18.882;2022-09-09T07:49:07;3.05;;;2.03;;
38379;SDS011;38377;47.418;18.882;2022-09-09T07:51:41;1.58;;;1.48;;
38379;SDS011;38377;47.418;18.882;2022-09-09T07:54:10;2.00;;;1.80;;
38379;SDS011;38377;47.418;18.882;2022-09-09T07:56:38;2.85;;;1.60;;
38379;SDS011;38377;47.418;18.882;2022-09-09T07:59:05;2.70;;;1.77;;
38379;SDS011;38377;47.418;18.882;2022-09-09T08:01:33;1.85;;;1.60;;
38379;SDS011;38377;47.418;18.882;2022-09-09T08:04:03;2.00;;;1.80;;
38379;SDS011;38377;47.418;18.882;2022-09-09T08:06:34;2.45;;;1.92;;
38379;SDS011;38377;47.418;18.882;2022-09-09T08:09:04;1.70;;;1.58;;
38379;SDS011;38377;47.418;18.882;2022-09-09T08:11:31;2.50;;;1.63;;
38379;SDS011;38377;47.418;18.882;2022-09-09T08:13:58;2.35;;;1.70;;
38379;SDS011;38377;47.418;18.882;2022-09-09T08:16:26;1.60;;;1.50;;
38379;SDS011;38377;47.418;18.882;2022-09-09T08:18:53;2.15;;;1.85;;
38379;SDS011;38377;47.418;18.882;2022-09-09T08:21:22;2.45;;;1.40;;
38379;SDS011;38377;47.418;18.882;2022-09-09T08:23:50;4.28;;;1.70;;
38379;SDS011;38377;47.418;18.882;2022-09-09T08:26:30;1.50;;;1.10;;
38379;SDS011;38377;47.418;18.882;2022-09-09T08:28:59;2.75;;;1.33;;
38379;SDS011;38377;47.418;18.882;2022-09-09T08:33:53;2.53;;;1.20;;
38379;SDS011;38377;47.418;18.882;2022-09-09T08:36:21;1.65;;;1.55;;
38379;SDS011;38377;47.418;18.882;2022-09-09T08:38:49;1.73;;;1.15;;
38379;SDS011;38377;47.418;18.882;2022-09-09T08:52:41;2.00;;;0.80;;
38379;SDS011;38377;47.418;18.882;2022-09-09T08:57:40;2.63;;;1.05;;
38379;SDS011;38377;47.418;18.882;2022-09-09T09:00:08;2.45;;;0.88;;
38379;SDS011;38377;47.418;18.882;2022-09-09T09:02:51;1.83;;;0.88;;
38379;SDS011;38377;47.418;18.882;2022-09-09T09:11:20;1.50;;;1.17;;
38379;SDS011;38377;47.418;18.882;2022-09-09T09:13:57;1.00;;;0.65;;
38379;SDS011;38377;47.418;18.882;2022-09-09T09:16:36;2.88;;;1.10;;
38379;SDS011;38377;47.418;18.882;2022-09-09T09:19:08;1.13;;;0.80;;
38379;SDS011;38377;47.418;18.882;2022-09-09T09:21:43;2.25;;;0.90;;
38379;SDS011;38377;47.418;18.882;2022-09-09T09:26:46;1.27;;;0.80;;
38379;SDS011;38377;47.418;18.882;2022-09-09T09:29:14;2.60;;;0.80;;
38379;SDS011;38377;47.418;18.882;2022-09-09T09:31:45;1.63;;;0.90;;
38379;SDS011;38377;47.418;18.882;2022-09-09T09:34:22;1.55;;;0.93;;
38379;SDS011;38377;47.418;18.882;2022-09-09T09:36:56;0.90;;;0.80;;
38379;SDS011;38377;47.418;18.882;2022-09-09T09:39:24;1.00;;;0.80;;
38379;SDS011;38377;47.418;18.882;2022-09-09T09:42:07;2.80;;;0.90;;
38379;SDS011;38377;47.418;18.882;2022-09-09T09:44:39;2.17;;;0.90;;
38379;SDS011;38377;47.418;18.882;2022-09-09T09:47:10;0.82;;;0.75;;
38379;SDS011;38377;47.418;18.882;2022-09-09T09:49:38;1.98;;;0.70;;
38379;SDS011;38377;47.418;18.882;2022-09-09T09:52:04;1.58;;;0.60;;
38379;SDS011;38377;47.418;18.882;2022-09-09T09:54:38;4.50;;;0.65;;
38379;SDS011;38377;47.418;18.882;2022-09-09T09:57:14;2.25;;;0.80;;
38379;SDS011;38377;47.418;18.882;2022-09-09T09:59:42;1.20;;;0.73;;
38379;SDS011;38377;47.418;18.882;2022-09-09T10:04:59;0.90;;;0.68;;
38379;SDS011;38377;47.418;18.882;2022-09-09T10:07:30;1.40;;;0.80;;
38379;SDS011;38377;47.418;18.882;2022-09-09T10:09:58;0.80;;;0.70;;
38379;SDS011;38377;47.418;18.882;2022-09-09T10:15:35;1.23;;;0.50;;
38379;SDS011;38377;47.418;18.882;2022-09-09T10:29:13;0.40;;;0.32;;
38379;SDS011;38377;47.418;18.882;2022-09-09T10:37:11;0.80;;;0.30;;
38379;SDS011;38377;47.418;18.882;2022-09-09T10:39:47;1.80;;;0.40;;
38379;SDS011;38377;47.418;18.882;2022-09-09T10:42:16;1.08;;;0.50;;
38379;SDS011;38377;47.418;18.882;2022-09-09T11:02:41;0.93;;;0.40;;
38379;SDS011;38377;47.418;18.882;2022-09-09T11:08:08;0.73;;;0.30;;
38379;SDS011;38377;47.418;18.882;2022-09-09T11:13:30;0.40;;;0.30;;
38379;SDS011;38377;47.418;18.882;2022-09-09T11:16:19;2.00;;;0.40;;
38379;SDS011;38377;47.418;18.882;2022-09-09T11:18:50;0.50;;;0.20;;
38379;SDS011;38377;47.418;18.882;2022-09-09T11:21:31;1.40;;;0.43;;
38379;SDS011;38377;47.418;18.882;2022-09-09T11:24:08;0.60;;;0.20;;
38379;SDS011;38377;47.418;18.882;2022-09-09T11:26:40;0.50;;;0.30;;
38379;SDS011;38377;47.418;18.882;2022-09-09T11:40:40;1.33;;;0.30;;
38379;SDS011;38377;47.418;18.882;2022-09-09T11:43:10;0.70;;;0.40;;
38379;SDS011;38377;47.418;18.882;2022-09-09T11:45:42;1.92;;;0.40;;
38379;SDS011;38377;47.418;18.882;2022-09-09T11:51:11;0.60;;;0.40;;
38379;SDS011;38377;47.418;18.882;2022-09-09T11:53:48;1.02;;;0.50;;
38379;SDS011;38377;47.418;18.882;2022-09-09T11:58:57;1.15;;;0.35;;
38379;SDS011;38377;47.418;18.882;2022-09-09T12:01:37;2.00;;;0.43;;
38379;SDS011;38377;47.418;18.882;2022-09-09T12:04:10;0.60;;;0.52;;
38379;SDS011;38377;47.418;18.882;2022-09-09T12:06:44;0.93;;;0.40;;
38379;SDS011;38377;47.418;18.882;2022-09-09T12:14:38;0.60;;;0.45;;
38379;SDS011;38377;47.418;18.882;2022-09-09T12:19:40;1.05;;;0.57;;
38379;SDS011;38377;47.418;18.882;2022-09-09T12:24:44;0.60;;;0.43;;
38379;SDS011;38377;47.418;18.882;2022-09-09T12:27:16;1.35;;;0.50;;
38379;SDS011;38377;47.418;18.882;2022-09-09T12:30:12;1.67;;;0.60;;
38379;SDS011;38377;47.418;18.882;2022-09-09T12:32:40;1.25;;;0.60;;
38379;SDS011;38377;47.418;18.882;2022-09-09T12:37:38;0.50;;;0.40;;
38379;SDS011;38377;47.418;18.882;2022-09-09T12:43:19;1.65;;;0.50;;
38379;SDS011;38377;47.418;18.882;2022-09-09T12:45:47;1.40;;;0.60;;
38379;SDS011;38377;47.418;18.882;2022-09-09T12:48:21;2.45;;;0.40;;
38379;SDS011;38377;47.418;18.882;2022-09-09T12:50:50;1.65;;;0.60;;
38379;SDS011;38377;47.418;18.882;2022-09-09T12:53:29;1.65;;;0.40;;
38379;SDS011;38377;47.418;18.882;2022-09-09T12:56:09;1.75;;;0.40;;
38379;SDS011;38377;47.418;18.882;2022-09-09T12:58:45;0.50;;;0.40;;
38379;SDS011;38377;47.418;18.882;2022-09-09T13:01:26;2.05;;;0.43;;
38379;SDS011;38377;47.418;18.882;2022-09-09T13:03:53;1.10;;;0.60;;
38379;SDS011;38377;47.418;18.882;2022-09-09T13:06:26;0.50;;;0.32;;
38379;SDS011;38377;47.418;18.882;2022-09-09T13:08:53;1.38;;;0.50;;
38379;SDS011;38377;47.418;18.882;2022-09-09T13:11:25;0.52;;;0.50;;
38379;SDS011;38377;47.418;18.882;2022-09-09T13:13:54;2.15;;;0.70;;
38379;SDS011;38377;47.418;18.882;2022-09-09T13:16:23;1.08;;;0.43;;
38379;SDS011;38377;47.418;18.882;2022-09-09T13:18:55;0.80;;;0.38;;
38379;SDS011;38377;47.418;18.882;2022-09-09T13:21:30;1.90;;;0.65;;
38379;SDS011;38377;47.418;18.882;2022-09-09T13:24:00;3.53;;;0.80;;
38379;SDS011;38377;47.418;18.882;2022-09-09T13:26:28;1.13;;;0.57;;
38379;SDS011;38377;47.418;18.882;2022-09-09T13:29:07;0.63;;;0.38;;
38379;SDS011;38377;47.418;18.882;2022-09-09T13:31:46;1.52;;;0.60;;
38379;SDS011;38377;47.418;18.882;2022-09-09T13:34:33;1.90;;;0.32;;
38379;SDS011;38377;47.418;18.882;2022-09-09T13:37:00;0.75;;;0.43;;
38379;SDS011;38377;47.418;18.882;2022-09-09T13:39:50;2.15;;;0.50;;
38379;SDS011;38377;47.418;18.882;2022-09-09T13:42:25;1.50;;;0.52;;
38379;SDS011;38377;47.418;18.882;2022-09-09T13:44:53;1.48;;;0.45;;
38379;SDS011;38377;47.418;18.882;2022-09-09T13:47:21;1.08;;;0.40;;
38379;SDS011;38377;47.418;18.882;2022-09-09T13:50:20;2.33;;;0.35;;
38379;SDS011;38377;47.418;18.882;2022-09-09T13:52:46;1.35;;;0.32;;
38379;SDS011;38377;47.418;18.882;2022-09-09T13:55:14;0.45;;;0.30;;
38379;SDS011;38377;47.418;18.882;2022-09-09T13:57:39;1.00;;;0.50;;
38379;SDS011;38377;47.418;18.882;2022-09-09T14:00:22;1.95;;;0.63;;
38379;SDS011;38377;47.418;18.882;2022-09-09T14:02:49;0.60;;;0.30;;
38379;SDS011;38377;47.418;18.882;2022-09-09T14:05:15;1.05;;;0.55;;
38379;SDS011;38377;47.418;18.882;2022-09-09T14:07:41;1.95;;;0.47;;
38379;SDS011;38377;47.418;18.882;2022-09-09T14:10:08;0.50;;;0.40;;
38379;SDS011;38377;47.418;18.882;2022-09-09T14:12:35;1.33;;;0.35;;
38379;SDS011;38377;47.418;18.882;2022-09-09T14:15:02;0.40;;;0.32;;
38379;SDS011;38377;47.418;18.882;2022-09-09T14:17:28;2.67;;;0.50;;
38379;SDS011;38377;47.418;18.882;2022-09-09T14:19:55;2.85;;;0.98;;
38379;SDS011;38377;47.418;18.882;2022-09-09T14:22:21;0.80;;;0.50;;
38379;SDS011;38377;47.418;18.882;2022-09-09T14:24:47;0.50;;;0.35;;
38379;SDS011;38377;47.418;18.882;2022-09-09T14:27:14;0.70;;;0.68;;
38379;SDS011;38377;47.418;18.882;2022-09-09T14:29:40;1.23;;;0.40;;
38379;SDS011;38377;47.418;18.882;2022-09-09T14:32:07;2.15;;;0.55;;
38379;SDS011;38377;47.418;18.882;2022-09-09T14:34:32;0.90;;;0.25;;
38379;SDS011;38377;47.418;18.882;2022-09-09T14:36:58;4.38;;;0.88;;
38379;SDS011;38377;47.418;18.882;2022-09-09T14:39:24;0.70;;;0.50;;
38379;SDS011;38377;47.418;18.882;2022-09-09T14:41:50;1.83;;;0.52;;
38379;SDS011;38377;47.418;18.882;2022-09-09T14:44:15;0.63;;;0.40;;
38379;SDS011;38377;47.418;18.882;2022-09-09T14:46:41;0.85;;;0.50;;
38379;SDS011;38377;47.418;18.882;2022-09-09T14:49:07;1.10;;;0.50;;
38379;SDS011;38377;47.418;18.882;2022-09-09T14:51:35;2.95;;;0.50;;
38379;SDS011;38377;47.418;18.882;2022-09-09T14:54:01;1.70;;;0.60;;
38379;SDS011;38377;47.418;18.882;2022-09-09T14:56:28;0.70;;;0.40;;
38379;SDS011;38377;47.418;18.882;2022-09-09T14:58:56;0.95;;;0.50;;
38379;SDS011;38377;47.418;18.882;2022-09-09T15:01:24;1.35;;;0.40;;
38379;SDS011;38377;47.418;18.882;2022-09-09T15:04:04;2.05;;;0.50;;
38379;SDS011;38377;47.418;18.882;2022-09-09T15:06:32;1.35;;;0.30;;
38379;SDS011;38377;47.418;18.882;2022-09-09T15:09:01;0.75;;;0.55;;
38379;SDS011;38377;47.418;18.882;2022-09-09T15:11:28;2.25;;;0.52;;
38379;SDS011;38377;47.418;18.882;2022-09-09T15:13:55;0.80;;;0.50;;
38379;SDS011;38377;47.418;18.882;2022-09-09T15:16:25;1.10;;;0.50;;
38379;SDS011;38377;47.418;18.882;2022-09-09T15:18:53;1.02;;;0.43;;
38379;SDS011;38377;47.418;18.882;2022-09-09T15:21:23;2.00;;;0.57;;
38379;SDS011;38377;47.418;18.882;2022-09-09T15:23:50;2.55;;;0.60;;
38379;SDS011;38377;47.418;18.882;2022-09-09T15:26:17;1.98;;;0.57;;
38379;SDS011;38377;47.418;18.882;2022-09-09T15:28:44;2.25;;;0.75;;
38379;SDS011;38377;47.418;18.882;2022-09-09T15:31:18;1.60;;;0.70;;
38379;SDS011;38377;47.418;18.882;2022-09-09T15:33:55;1.65;;;0.50;;
38379;SDS011;38377;47.418;18.882;2022-09-09T15:36:26;1.38;;;0.50;;
38379;SDS011;38377;47.418;18.882;2022-09-09T15:38:59;1.25;;;0.60;;
38379;SDS011;38377;47.418;18.882;2022-09-09T15:41:26;0.60;;;0.38;;
38379;SDS011;38377;47.418;18.882;2022-09-09T15:43:54;0.75;;;0.25;;
38379;SDS011;38377;47.418;18.882;2022-09-09T15:46:25;1.55;;;0.50;;
38379;SDS011;38377;47.418;18.882;2022-09-09T15:48:56;2.75;;;0.50;;
38379;SDS011;38377;47.418;18.882;2022-09-09T15:51:23;1.55;;;0.60;;
38379;SDS011;38377;47.418;18.882;2022-09-09T15:53:54;4.28;;;0.68;;
38379;SDS011;38377;47.418;18.882;2022-09-09T15:56:21;0.88;;;0.40;;
38379;SDS011;38377;47.418;18.882;2022-09-09T15:58:47;3.53;;;0.63;;
38379;SDS011;38377;47.418;18.882;2022-09-09T16:01:12;2.45;;;0.60;;
38379;SDS011;38377;47.418;18.882;2022-09-09T16:03:39;1.25;;;0.52;;
38379;SDS011;38377;47.418;18.882;2022-09-09T16:06:07;1.80;;;0.55;;
38379;SDS011;38377;47.418;18.882;2022-09-09T16:08:35;2.20;;;1.00;;
38379;SDS011;38377;47.418;18.882;2022-09-09T16:11:06;1.35;;;0.95;;
38379;SDS011;38377;47.418;18.882;2022-09-09T16:13:37;1.40;;;0.93;;
38379;SDS011;38377;47.418;18.882;2022-09-09T16:16:07;2.53;;;0.70;;
38379;SDS011;38377;47.418;18.882;2022-09-09T16:18:35;0.93;;;0.52;;
38379;SDS011;38377;47.418;18.882;2022-09-09T16:23:34;4.10;;;0.93;;
38379;SDS011;38377;47.418;18.882;2022-09-09T16:26:00;1.48;;;0.60;;
38379;SDS011;38377;47.418;18.882;2022-09-09T16:28:26;1.17;;;0.63;;
38379;SDS011;38377;47.418;18.882;2022-09-09T16:30:53;2.65;;;0.50;;
38379;SDS011;38377;47.418;18.882;2022-09-09T16:33:19;2.70;;;0.85;;
38379;SDS011;38377;47.418;18.882;2022-09-09T16:35:45;1.75;;;0.52;;
38379;SDS011;38377;47.418;18.882;2022-09-09T16:38:11;2.65;;;0.73;;
38379;SDS011;38377;47.418;18.882;2022-09-09T16:40:37;1.20;;;0.75;;
38379;SDS011;38377;47.418;18.882;2022-09-09T16:43:03;2.50;;;1.05;;
38379;SDS011;38377;47.418;18.882;2022-09-09T16:45:30;1.02;;;0.60;;
38379;SDS011;38377;47.418;18.882;2022-09-09T16:47:57;2.15;;;0.82;;
38379;SDS011;38377;47.418;18.882;2022-09-09T16:50:24;2.13;;;0.70;;
38379;SDS011;38377;47.418;18.882;2022-09-09T16:52:51;4.82;;;0.90;;
38379;SDS011;38377;47.418;18.882;2022-09-09T16:55:17;1.67;;;0.90;;
38379;SDS011;38377;47.418;18.882;2022-09-09T16:57:45;2.45;;;0.80;;
38379;SDS011;38377;47.418;18.882;2022-09-09T17:00:14;5.90;;;1.52;;
38379;SDS011;38377;47.418;18.882;2022-09-09T17:02:41;7.07;;;1.65;;
38379;SDS011;38377;47.418;18.882;2022-09-09T17:05:08;4.53;;;1.33;;
38379;SDS011;38377;47.418;18.882;2022-09-09T17:07:34;3.55;;;1.30;;
38379;SDS011;38377;47.418;18.882;2022-09-09T17:10:00;2.13;;;1.02;;
38379;SDS011;38377;47.418;18.882;2022-09-09T17:12:26;2.13;;;0.90;;
38379;SDS011;38377;47.418;18.882;2022-09-09T17:14:52;2.05;;;1.00;;
38379;SDS011;38377;47.418;18.882;2022-09-09T17:17:20;4.22;;;1.40;;
38379;SDS011;38377;47.418;18.882;2022-09-09T17:19:46;5.28;;;1.50;;
38379;SDS011;38377;47.418;18.882;2022-09-09T17:22:12;6.72;;;1.90;;
38379;SDS011;38377;47.418;18.882;2022-09-09T17:24:38;8.15;;;1.85;;
38379;SDS011;38377;47.418;18.882;2022-09-09T17:27:05;3.15;;;1.95;;
38379;SDS011;38377;47.418;18.882;2022-09-09T17:29:31;2.95;;;2.03;;
38379;SDS011;38377;47.418;18.882;2022-09-09T17:31:56;4.35;;;1.90;;
38379;SDS011;38377;47.418;18.882;2022-09-09T17:34:23;7.18;;;2.45;;
38379;SDS011;38377;47.418;18.882;2022-09-09T17:36:50;3.05;;;1.77;;
38379;SDS011;38377;47.418;18.882;2022-09-09T17:39:15;6.15;;;1.80;;
38379;SDS011;38377;47.418;18.882;2022-09-09T17:41:41;4.90;;;2.05;;
38379;SDS011;38377;47.418;18.882;2022-09-09T17:44:07;2.28;;;1.42;;
38379;SDS011;38377;47.418;18.882;2022-09-09T17:46:35;11.95;;;2.47;;